<?xml version="1.0" encoding="UTF-8" standalone="no" ?><gpx xmlns="http://www.topografix.com/GPX/1/1" xmlns:gpxx="http://www.garmin.com/xmlschemas/GpxExtensions/v3" xmlns:wptx1="http://www.garmin.com/xmlschemas/WaypointExtension/v1" xmlns:gpxtpx="http://www.garmin.com/xmlschemas/TrackPointExtension/v1" creator="GuideVTT.com" version="1.1" xmlns:xsi="http://www.w3.org/2001/XMLSchema-instance" xsi:schemaLocation="http://www.topografix.com/GPX/1/1 http://www.topografix.com/GPX/1/1/gpx.xsd http://www.garmin.com/xmlschemas/GpxExtensions/v3 http://www8.garmin.com/xmlschemas/GpxExtensionsv3.xsd http://www.garmin.com/xmlschemas/WaypointExtension/v1 http://www8.garmin.com/xmlschemas/WaypointExtensionv1.xsd http://www.garmin.com/xmlschemas/TrackPointExtension/v1 http://www.garmin.com/xmlschemas/TrackPointExtensionv1.xsd">
<metadata><link href="http://www.garmin.com"><text>Garmin International</text></link><time>2013-06-22T15:13:50Z</time></metadata>
<trk><name>etape4brut3.gpx</name><extensions><gpxx:TrackExtension><gpxx:DisplayColor>Cyan</gpxx:DisplayColor></gpxx:TrackExtension></extensions><trkseg>
<trkpt lat="46.08331430" lon="7.50855429"><ele>1457.976807</ele><time>2008-09-20T10:03:55Z</time></trkpt>
<trkpt lat="46.08331421" lon="7.50855446"><ele>1457.976807</ele><time>2008-09-20T10:03:56Z</time></trkpt>
<trkpt lat="46.08323626" lon="7.50859209"><ele>1458.457275</ele><time>2008-09-20T10:04:04Z</time></trkpt>
<trkpt lat="46.08300626" lon="7.50857382"><ele>1457.976807</ele><time>2008-09-20T10:04:11Z</time></trkpt>
<trkpt lat="46.08256093" lon="7.50854080"><ele>1459.418701</ele><time>2008-09-20T10:04:22Z</time></trkpt>
<trkpt lat="46.08206213" lon="7.50846402"><ele>1458.457275</ele><time>2008-09-20T10:04:34Z</time></trkpt>
<trkpt lat="46.08151671" lon="7.50839956"><ele>1458.937988</ele><time>2008-09-20T10:04:47Z</time></trkpt>
<trkpt lat="46.08108530" lon="7.50831767"><ele>1452.689453</ele><time>2008-09-20T10:05:18Z</time></trkpt>
<trkpt lat="46.08036144" lon="7.50827392"><ele>1448.363281</ele><time>2008-09-20T10:05:44Z</time></trkpt>
<trkpt lat="46.08014284" lon="7.50807904"><ele>1447.4021</ele><time>2008-09-20T10:05:48Z</time></trkpt>
<trkpt lat="46.07998090" lon="7.50768618"><ele>1446.921387</ele><time>2008-09-20T10:05:53Z</time></trkpt>
<trkpt lat="46.07993656" lon="7.50692016"><ele>1446.921387</ele><time>2008-09-20T10:06:01Z</time></trkpt>
<trkpt lat="46.07990462" lon="7.50589714"><ele>1446.440918</ele><time>2008-09-20T10:06:11Z</time></trkpt>
<trkpt lat="46.07979474" lon="7.50579589"><ele>1446.440918</ele><time>2008-09-20T10:06:13Z</time></trkpt>
<trkpt lat="46.07915696" lon="7.50512634"><ele>1446.921387</ele><time>2008-09-20T10:06:28Z</time></trkpt>
<trkpt lat="46.07893283" lon="7.50485351"><ele>1446.921387</ele><time>2008-09-20T10:06:35Z</time></trkpt>
<trkpt lat="46.07884884" lon="7.50461019"><ele>1446.921387</ele><time>2008-09-20T10:06:56Z</time></trkpt>
<trkpt lat="46.07890223" lon="7.50446434"><ele>1446.921387</ele><time>2008-09-20T10:07:25Z</time></trkpt>
<trkpt lat="46.07896887" lon="7.50435060"><ele>1446.921387</ele><time>2008-09-20T10:07:30Z</time></trkpt>
<trkpt lat="46.07897448" lon="7.50392111"><ele>1447.882813</ele><time>2008-09-20T10:07:48Z</time></trkpt>
<trkpt lat="46.07879268" lon="7.50373143"><ele>1456.534668</ele><time>2008-09-20T10:08:01Z</time></trkpt>
<trkpt lat="46.07865932" lon="7.50367745"><ele>1462.783203</ele><time>2008-09-20T10:08:47Z</time></trkpt>
<trkpt lat="46.07849755" lon="7.50352708"><ele>1469.993164</ele><time>2008-09-20T10:08:58Z</time></trkpt>
<trkpt lat="46.07852396" lon="7.50323304"><ele>1469.031982</ele><time>2008-09-20T10:09:10Z</time></trkpt>
<trkpt lat="46.07844986" lon="7.50286851"><ele>1469.031982</ele><time>2008-09-20T10:09:28Z</time></trkpt>
<trkpt lat="46.07827753" lon="7.50271655"><ele>1478.164307</ele><time>2008-09-20T10:09:40Z</time></trkpt>
<trkpt lat="46.07814551" lon="7.50261496"><ele>1482.009521</ele><time>2008-09-20T10:09:49Z</time></trkpt>
<trkpt lat="46.07796631" lon="7.50248370"><ele>1488.739014</ele><time>2008-09-20T10:10:01Z</time></trkpt>
<trkpt lat="46.07781711" lon="7.50242972"><ele>1491.622803</ele><time>2008-09-20T10:10:10Z</time></trkpt>
<trkpt lat="46.07768635" lon="7.50232947"><ele>1491.14209</ele><time>2008-09-20T10:10:21Z</time></trkpt>
<trkpt lat="46.07768971" lon="7.50230500"><ele>1491.14209</ele><time>2008-09-20T10:10:35Z</time></trkpt>
<trkpt lat="46.07765744" lon="7.50233609"><ele>1501.236084</ele><time>2008-09-20T10:11:34Z</time></trkpt>
<trkpt lat="46.07766230" lon="7.50226988"><ele>1499.793945</ele><time>2008-09-20T10:11:38Z</time></trkpt>
<trkpt lat="46.07770714" lon="7.50208179"><ele>1497.871338</ele><time>2008-09-20T10:11:47Z</time></trkpt>
<trkpt lat="46.07778777" lon="7.50191415"><ele>1495.468018</ele><time>2008-09-20T10:11:55Z</time></trkpt>
<trkpt lat="46.07826814" lon="7.50189671"><ele>1498.351807</ele><time>2008-09-20T10:12:23Z</time></trkpt>
<trkpt lat="46.07804376" lon="7.50170988"><ele>1506.523193</ele><time>2008-09-20T10:12:45Z</time></trkpt>
<trkpt lat="46.07797385" lon="7.50159957"><ele>1507.003906</ele><time>2008-09-20T10:12:53Z</time></trkpt>
<trkpt lat="46.07782440" lon="7.50147552"><ele>1511.329834</ele><time>2008-09-20T10:13:07Z</time></trkpt>
<trkpt lat="46.07768384" lon="7.50132096"><ele>1518.539795</ele><time>2008-09-20T10:13:21Z</time></trkpt>
<trkpt lat="46.07759030" lon="7.50112130"><ele>1515.175049</ele><time>2008-09-20T10:13:33Z</time></trkpt>
<trkpt lat="46.07744185" lon="7.50092139"><ele>1517.0979</ele><time>2008-09-20T10:13:49Z</time></trkpt>
<trkpt lat="46.07734613" lon="7.50073875"><ele>1518.539795</ele><time>2008-09-20T10:14:02Z</time></trkpt>
<trkpt lat="46.07725812" lon="7.50055963"><ele>1520.462402</ele><time>2008-09-20T10:14:14Z</time></trkpt>
<trkpt lat="46.07715670" lon="7.50035201"><ele>1520.943115</ele><time>2008-09-20T10:14:27Z</time></trkpt>
<trkpt lat="46.07704011" lon="7.50017113"><ele>1525.268799</ele><time>2008-09-20T10:14:40Z</time></trkpt>
<trkpt lat="46.07686845" lon="7.50008153"><ele>1533.440186</ele><time>2008-09-20T10:14:53Z</time></trkpt>
<trkpt lat="46.07664599" lon="7.49989444"><ele>1540.169434</ele><time>2008-09-20T10:15:15Z</time></trkpt>
<trkpt lat="46.07655002" lon="7.49976067"><ele>1543.053223</ele><time>2008-09-20T10:15:26Z</time></trkpt>
<trkpt lat="46.07650199" lon="7.49965556"><ele>1543.533936</ele><time>2008-09-20T10:15:34Z</time></trkpt>
<trkpt lat="46.07646855" lon="7.49956638"><ele>1544.495117</ele><time>2008-09-20T10:15:39Z</time></trkpt>
<trkpt lat="46.07637366" lon="7.49938516"><ele>1545.456543</ele><time>2008-09-20T10:15:51Z</time></trkpt>
<trkpt lat="46.07626428" lon="7.49923261"><ele>1547.37915</ele><time>2008-09-20T10:16:02Z</time></trkpt>
<trkpt lat="46.07612061" lon="7.49907075"><ele>1554.108643</ele><time>2008-09-20T10:16:15Z</time></trkpt>
<trkpt lat="46.07601928" lon="7.49892072"><ele>1559.395752</ele><time>2008-09-20T10:16:26Z</time></trkpt>
<trkpt lat="46.07584812" lon="7.49878610"><ele>1564.202393</ele><time>2008-09-20T10:16:40Z</time></trkpt>
<trkpt lat="46.07565341" lon="7.49877471"><ele>1570.450928</ele><time>2008-09-20T10:17:29Z</time></trkpt>
<trkpt lat="46.07547546" lon="7.49876716"><ele>1567.086426</ele><time>2008-09-20T10:17:38Z</time></trkpt>
<trkpt lat="46.07531461" lon="7.49861822"><ele>1565.644531</ele><time>2008-09-20T10:17:45Z</time></trkpt>
<trkpt lat="46.07518980" lon="7.49841160"><ele>1566.125</ele><time>2008-09-20T10:17:54Z</time></trkpt>
<trkpt lat="46.07500951" lon="7.49822519"><ele>1565.644531</ele><time>2008-09-20T10:18:05Z</time></trkpt>
<trkpt lat="46.07477565" lon="7.49783350"><ele>1568.52832</ele><time>2008-09-20T10:18:26Z</time></trkpt>
<trkpt lat="46.07475570" lon="7.49780903"><ele>1569.009033</ele><time>2008-09-20T10:18:28Z</time></trkpt>
<trkpt lat="46.07458941" lon="7.49779277"><ele>1573.81543</ele><time>2008-09-20T10:18:39Z</time></trkpt>
<trkpt lat="46.07448933" lon="7.49764449"><ele>1575.738037</ele><time>2008-09-20T10:18:48Z</time></trkpt>
<trkpt lat="46.07440911" lon="7.49738205"><ele>1578.141357</ele><time>2008-09-20T10:18:58Z</time></trkpt>
<trkpt lat="46.07433535" lon="7.49691937"><ele>1578.141357</ele><time>2008-09-20T10:19:15Z</time></trkpt>
<trkpt lat="46.07432504" lon="7.49668459"><ele>1578.141357</ele><time>2008-09-20T10:19:24Z</time></trkpt>
<trkpt lat="46.07433099" lon="7.49659491"><ele>1578.62207</ele><time>2008-09-20T10:19:31Z</time></trkpt>
<trkpt lat="46.07433778" lon="7.49641830"><ele>1578.62207</ele><time>2008-09-20T10:20:07Z</time></trkpt>
<trkpt lat="46.07437097" lon="7.49612309"><ele>1578.62207</ele><time>2008-09-20T10:20:18Z</time></trkpt>
<trkpt lat="46.07441582" lon="7.49578639"><ele>1578.62207</ele><time>2008-09-20T10:20:32Z</time></trkpt>
<trkpt lat="46.07439880" lon="7.49565261"><ele>1581.506104</ele><time>2008-09-20T10:20:38Z</time></trkpt>
<trkpt lat="46.07380050" lon="7.49583500"><ele>1596.887207</ele><time>2008-09-20T10:22:20Z</time></trkpt>
<trkpt lat="46.07362809" lon="7.49568522"><ele>1602.174316</ele><time>2008-09-20T10:22:32Z</time></trkpt>
<trkpt lat="46.07347637" lon="7.49552630"><ele>1604.097168</ele><time>2008-09-20T10:22:43Z</time></trkpt>
<trkpt lat="46.07331561" lon="7.49532488"><ele>1606.500244</ele><time>2008-09-20T10:22:56Z</time></trkpt>
<trkpt lat="46.07329583" lon="7.49514467"><ele>1607.46167</ele><time>2008-09-20T10:23:04Z</time></trkpt>
<trkpt lat="46.07329641" lon="7.49491886"><ele>1608.422852</ele><time>2008-09-20T10:23:15Z</time></trkpt>
<trkpt lat="46.07328594" lon="7.49488802"><ele>1607.942383</ele><time>2008-09-20T10:23:17Z</time></trkpt>
<trkpt lat="46.07309366" lon="7.49484451"><ele>1611.306885</ele><time>2008-09-20T10:23:28Z</time></trkpt>
<trkpt lat="46.07297321" lon="7.49476464"><ele>1613.229736</ele><time>2008-09-20T10:23:37Z</time></trkpt>
<trkpt lat="46.07281613" lon="7.49465383"><ele>1617.55542</ele><time>2008-09-20T10:23:49Z</time></trkpt>
<trkpt lat="46.07266434" lon="7.49455048"><ele>1622.362061</ele><time>2008-09-20T10:24:01Z</time></trkpt>
<trkpt lat="46.07256970" lon="7.49444260"><ele>1624.765381</ele><time>2008-09-20T10:24:11Z</time></trkpt>
<trkpt lat="46.07246057" lon="7.49431335"><ele>1628.130127</ele><time>2008-09-20T10:24:23Z</time></trkpt>
<trkpt lat="46.07235337" lon="7.49418494"><ele>1631.494629</ele><time>2008-09-20T10:24:34Z</time></trkpt>
<trkpt lat="46.07229461" lon="7.49405435"><ele>1631.975342</ele><time>2008-09-20T10:24:44Z</time></trkpt>
<trkpt lat="46.07233359" lon="7.49405695"><ele>1630.533447</ele><time>2008-09-20T10:25:59Z</time></trkpt>
<trkpt lat="46.07213493" lon="7.49382997"><ele>1640.146484</ele><time>2008-09-20T10:28:38Z</time></trkpt>
<trkpt lat="46.07202019" lon="7.49361573"><ele>1642.549805</ele><time>2008-09-20T10:28:52Z</time></trkpt>
<trkpt lat="46.07194467" lon="7.49352219"><ele>1643.991699</ele><time>2008-09-20T10:29:01Z</time></trkpt>
<trkpt lat="46.07187619" lon="7.49339738"><ele>1644.953125</ele><time>2008-09-20T10:29:11Z</time></trkpt>
<trkpt lat="46.07178734" lon="7.49326897"><ele>1645.914551</ele><time>2008-09-20T10:29:22Z</time></trkpt>
<trkpt lat="46.07164920" lon="7.49316520"><ele>1650.240479</ele><time>2008-09-20T10:29:34Z</time></trkpt>
<trkpt lat="46.07150495" lon="7.49308281"><ele>1650.720947</ele><time>2008-09-20T10:29:45Z</time></trkpt>
<trkpt lat="46.07137369" lon="7.49302749"><ele>1653.124268</ele><time>2008-09-20T10:29:54Z</time></trkpt>
<trkpt lat="46.07125601" lon="7.49296781"><ele>1656.48877</ele><time>2008-09-20T10:30:03Z</time></trkpt>
<trkpt lat="46.07114235" lon="7.49289296"><ele>1657.930908</ele><time>2008-09-20T10:30:12Z</time></trkpt>
<trkpt lat="46.07103196" lon="7.49282523"><ele>1658.411377</ele><time>2008-09-20T10:30:20Z</time></trkpt>
<trkpt lat="46.07087069" lon="7.49273756"><ele>1660.334229</ele><time>2008-09-20T10:30:32Z</time></trkpt>
<trkpt lat="46.07072778" lon="7.49267997"><ele>1662.737549</ele><time>2008-09-20T10:30:42Z</time></trkpt>
<trkpt lat="46.07059233" lon="7.49266044"><ele>1666.582764</ele><time>2008-09-20T10:30:51Z</time></trkpt>
<trkpt lat="46.07029066" lon="7.49272171"><ele>1670.427979</ele><time>2008-09-20T10:31:41Z</time></trkpt>
<trkpt lat="46.07019637" lon="7.49278978"><ele>1673.312012</ele><time>2008-09-20T10:31:51Z</time></trkpt>
<trkpt lat="46.07012638" lon="7.49272691"><ele>1675.234375</ele><time>2008-09-20T10:31:59Z</time></trkpt>
<trkpt lat="46.06999394" lon="7.49265390"><ele>1678.118652</ele><time>2008-09-20T10:32:10Z</time></trkpt>
<trkpt lat="46.06886859" lon="7.49305079"><ele>1696.383789</ele><time>2008-09-20T10:34:22Z</time></trkpt>
<trkpt lat="46.06863239" lon="7.49310896"><ele>1700.229004</ele><time>2008-09-20T10:34:35Z</time></trkpt>
<trkpt lat="46.06845788" lon="7.49322278"><ele>1703.112793</ele><time>2008-09-20T10:34:46Z</time></trkpt>
<trkpt lat="46.06831086" lon="7.49332722"><ele>1705.0354</ele><time>2008-09-20T10:34:56Z</time></trkpt>
<trkpt lat="46.06827155" lon="7.49337877"><ele>1705.516113</ele><time>2008-09-20T10:35:06Z</time></trkpt>
<trkpt lat="46.06824112" lon="7.49339277"><ele>1710.322754</ele><time>2008-09-20T10:35:40Z</time></trkpt>
<trkpt lat="46.06809427" lon="7.49347659"><ele>1712.726074</ele><time>2008-09-20T10:35:52Z</time></trkpt>
<trkpt lat="46.06794298" lon="7.49352939"><ele>1716.090576</ele><time>2008-09-20T10:36:03Z</time></trkpt>
<trkpt lat="46.06779571" lon="7.49355312"><ele>1719.935791</ele><time>2008-09-20T10:36:14Z</time></trkpt>
<trkpt lat="46.06769839" lon="7.49352101"><ele>1721.858398</ele><time>2008-09-20T10:36:22Z</time></trkpt>
<trkpt lat="46.06756261" lon="7.49351950"><ele>1722.339111</ele><time>2008-09-20T10:36:32Z</time></trkpt>
<trkpt lat="46.06741441" lon="7.49352822"><ele>1725.703857</ele><time>2008-09-20T10:36:43Z</time></trkpt>
<trkpt lat="46.06725005" lon="7.49349168"><ele>1725.703857</ele><time>2008-09-20T10:36:54Z</time></trkpt>
<trkpt lat="46.06710537" lon="7.49347173"><ele>1726.665283</ele><time>2008-09-20T10:37:03Z</time></trkpt>
<trkpt lat="46.06695919" lon="7.49342412"><ele>1728.587891</ele><time>2008-09-20T10:37:14Z</time></trkpt>
<trkpt lat="46.06682550" lon="7.49340383"><ele>1729.549072</ele><time>2008-09-20T10:37:23Z</time></trkpt>
<trkpt lat="46.06664605" lon="7.49336804"><ele>1731.47168</ele><time>2008-09-20T10:37:34Z</time></trkpt>
<trkpt lat="46.06641487" lon="7.49329512"><ele>1736.27832</ele><time>2008-09-20T10:37:53Z</time></trkpt>
<trkpt lat="46.06626911" lon="7.49322874"><ele>1741.084961</ele><time>2008-09-20T10:38:08Z</time></trkpt>
<trkpt lat="46.06609695" lon="7.49317895"><ele>1747.333496</ele><time>2008-09-20T10:38:21Z</time></trkpt>
<trkpt lat="46.06608286" lon="7.49317492"><ele>1747.814209</ele><time>2008-09-20T10:38:22Z</time></trkpt>
<trkpt lat="46.06604858" lon="7.49303017"><ele>1749.256104</ele><time>2008-09-20T10:38:31Z</time></trkpt>
<trkpt lat="46.06600123" lon="7.49296362"><ele>1750.697998</ele><time>2008-09-20T10:38:39Z</time></trkpt>
<trkpt lat="46.06600483" lon="7.49299589"><ele>1751.659424</ele><time>2008-09-20T10:38:46Z</time></trkpt>
<trkpt lat="46.06602126" lon="7.49297988"><ele>1749.256104</ele><time>2008-09-20T10:39:27Z</time></trkpt>
<trkpt lat="46.06607063" lon="7.49291617"><ele>1749.736816</ele><time>2008-09-20T10:39:32Z</time></trkpt>
<trkpt lat="46.06602939" lon="7.49287091"><ele>1750.217529</ele><time>2008-09-20T10:39:36Z</time></trkpt>
<trkpt lat="46.06580526" lon="7.49264971"><ele>1754.543213</ele><time>2008-09-20T10:39:54Z</time></trkpt>
<trkpt lat="46.06568640" lon="7.49240848"><ele>1754.543213</ele><time>2008-09-20T10:40:09Z</time></trkpt>
<trkpt lat="46.06547166" lon="7.49210481"><ele>1757.42749</ele><time>2008-09-20T10:40:30Z</time></trkpt>
<trkpt lat="46.06502968" lon="7.49189425"><ele>1762.7146</ele><time>2008-09-20T10:40:52Z</time></trkpt>
<trkpt lat="46.06475618" lon="7.49189291"><ele>1766.079102</ele><time>2008-09-20T10:41:06Z</time></trkpt>
<trkpt lat="46.06451930" lon="7.49182820"><ele>1766.559814</ele><time>2008-09-20T10:41:17Z</time></trkpt>
<trkpt lat="46.06430138" lon="7.49188738"><ele>1767.040527</ele><time>2008-09-20T10:41:27Z</time></trkpt>
<trkpt lat="46.06405109" lon="7.49201269"><ele>1768.963135</ele><time>2008-09-20T10:41:38Z</time></trkpt>
<trkpt lat="46.06381020" lon="7.49211629"><ele>1774.250488</ele><time>2008-09-20T10:41:52Z</time></trkpt>
<trkpt lat="46.06363535" lon="7.49208226"><ele>1776.173096</ele><time>2008-09-20T10:42:04Z</time></trkpt>
<trkpt lat="46.06347752" lon="7.49203423"><ele>1777.61499</ele><time>2008-09-20T10:42:14Z</time></trkpt>
<trkpt lat="46.06331667" lon="7.49204856"><ele>1778.576416</ele><time>2008-09-20T10:42:24Z</time></trkpt>
<trkpt lat="46.06309203" lon="7.49197505"><ele>1781.460205</ele><time>2008-09-20T10:42:37Z</time></trkpt>
<trkpt lat="46.06298810" lon="7.49193298"><ele>1785.786133</ele><time>2008-09-20T10:42:45Z</time></trkpt>
<trkpt lat="46.06280948" lon="7.49206415"><ele>1791.554199</ele><time>2008-09-20T10:42:58Z</time></trkpt>
<trkpt lat="46.06256003" lon="7.49207748"><ele>1793.476807</ele><time>2008-09-20T10:43:15Z</time></trkpt>
<trkpt lat="46.06227597" lon="7.49198444"><ele>1795.880127</ele><time>2008-09-20T10:43:33Z</time></trkpt>
<trkpt lat="46.06205452" lon="7.49192887"><ele>1799.725342</ele><time>2008-09-20T10:43:45Z</time></trkpt>
<trkpt lat="46.06179611" lon="7.49181706"><ele>1802.128418</ele><time>2008-09-20T10:44:01Z</time></trkpt>
<trkpt lat="46.06158044" lon="7.49169367"><ele>1803.089844</ele><time>2008-09-20T10:44:16Z</time></trkpt>
<trkpt lat="46.06155161" lon="7.49168647"><ele>1803.570557</ele><time>2008-09-20T10:44:18Z</time></trkpt>
<trkpt lat="46.06145932" lon="7.49173835"><ele>1811.741943</ele><time>2008-09-20T10:44:51Z</time></trkpt>
<trkpt lat="46.06128238" lon="7.49166761"><ele>1810.780518</ele><time>2008-09-20T10:45:18Z</time></trkpt>
<trkpt lat="46.06123980" lon="7.49163190"><ele>1811.741943</ele><time>2008-09-20T10:45:31Z</time></trkpt>
<trkpt lat="46.06117954" lon="7.49162947"><ele>1815.106445</ele><time>2008-09-20T10:45:43Z</time></trkpt>
<trkpt lat="46.06100419" lon="7.49168370"><ele>1820.393799</ele><time>2008-09-20T10:46:05Z</time></trkpt>
<trkpt lat="46.06099010" lon="7.49168898"><ele>1820.393799</ele><time>2008-09-20T10:46:06Z</time></trkpt>
<trkpt lat="46.06093990" lon="7.49169602"><ele>1819.912842</ele><time>2008-09-20T10:46:15Z</time></trkpt>
<trkpt lat="46.06093721" lon="7.49168823"><ele>1816.54834</ele><time>2008-09-20T10:46:59Z</time></trkpt>
<trkpt lat="46.06077125" lon="7.49160491"><ele>1816.54834</ele><time>2008-09-20T10:47:10Z</time></trkpt>
<trkpt lat="46.06058425" lon="7.49162394"><ele>1819.912842</ele><time>2008-09-20T10:47:23Z</time></trkpt>
<trkpt lat="46.06042659" lon="7.49154816"><ele>1822.316406</ele><time>2008-09-20T10:47:35Z</time></trkpt>
<trkpt lat="46.06024001" lon="7.49149377"><ele>1823.758301</ele><time>2008-09-20T10:48:06Z</time></trkpt>
<trkpt lat="46.06016306" lon="7.49146191"><ele>1828.084229</ele><time>2008-09-20T10:48:19Z</time></trkpt>
<trkpt lat="46.06013934" lon="7.49145303"><ele>1830.968262</ele><time>2008-09-20T10:48:30Z</time></trkpt>
<trkpt lat="46.06010665" lon="7.49142218"><ele>1834.332764</ele><time>2008-09-20T10:50:07Z</time></trkpt>
<trkpt lat="46.06000003" lon="7.49131062"><ele>1835.293945</ele><time>2008-09-20T10:50:16Z</time></trkpt>
<trkpt lat="46.05987481" lon="7.49124977"><ele>1836.736084</ele><time>2008-09-20T10:50:24Z</time></trkpt>
<trkpt lat="46.05972603" lon="7.49122990"><ele>1839.620117</ele><time>2008-09-20T10:50:33Z</time></trkpt>
<trkpt lat="46.05958689" lon="7.49122974"><ele>1841.542725</ele><time>2008-09-20T10:50:42Z</time></trkpt>
<trkpt lat="46.05943032" lon="7.49116411"><ele>1845.868652</ele><time>2008-09-20T10:50:53Z</time></trkpt>
<trkpt lat="46.05934038" lon="7.49107651"><ele>1848.752441</ele><time>2008-09-20T10:51:02Z</time></trkpt>
<trkpt lat="46.05922253" lon="7.49093327"><ele>1849.233154</ele><time>2008-09-20T10:51:14Z</time></trkpt>
<trkpt lat="46.05914089" lon="7.49082313"><ele>1849.713867</ele><time>2008-09-20T10:51:24Z</time></trkpt>
<trkpt lat="46.05911658" lon="7.49081106"><ele>1851.636475</ele><time>2008-09-20T10:51:31Z</time></trkpt>
<trkpt lat="46.05911516" lon="7.49071534"><ele>1850.675049</ele><time>2008-09-20T10:52:13Z</time></trkpt>
<trkpt lat="46.05899898" lon="7.49056874"><ele>1852.5979</ele><time>2008-09-20T10:52:24Z</time></trkpt>
<trkpt lat="46.05887325" lon="7.49036992"><ele>1853.559326</ele><time>2008-09-20T10:52:36Z</time></trkpt>
<trkpt lat="46.05878768" lon="7.49024536"><ele>1855.001221</ele><time>2008-09-20T10:52:45Z</time></trkpt>
<trkpt lat="46.05870268" lon="7.49009944"><ele>1856.443115</ele><time>2008-09-20T10:52:55Z</time></trkpt>
<trkpt lat="46.05855399" lon="7.49003246"><ele>1860.769043</ele><time>2008-09-20T10:53:05Z</time></trkpt>
<trkpt lat="46.05840429" lon="7.49004847"><ele>1866.056152</ele><time>2008-09-20T10:53:14Z</time></trkpt>
<trkpt lat="46.05835676" lon="7.49000824"><ele>1867.498047</ele><time>2008-09-20T10:53:18Z</time></trkpt>
<trkpt lat="46.05831821" lon="7.48986206"><ele>1870.382324</ele><time>2008-09-20T10:53:27Z</time></trkpt>
<trkpt lat="46.05829641" lon="7.48962360"><ele>1871.343506</ele><time>2008-09-20T10:53:38Z</time></trkpt>
<trkpt lat="46.05821745" lon="7.48946870"><ele>1871.824219</ele><time>2008-09-20T10:53:46Z</time></trkpt>
<trkpt lat="46.05805862" lon="7.48936895"><ele>1874.708252</ele><time>2008-09-20T10:53:56Z</time></trkpt>
<trkpt lat="46.05788251" lon="7.48940432"><ele>1877.111572</ele><time>2008-09-20T10:54:05Z</time></trkpt>
<trkpt lat="46.05773080" lon="7.48944439"><ele>1879.995361</ele><time>2008-09-20T10:54:14Z</time></trkpt>
<trkpt lat="46.05763064" lon="7.48929469"><ele>1880.476074</ele><time>2008-09-20T10:54:21Z</time></trkpt>
<trkpt lat="46.05743023" lon="7.48917047"><ele>1881.437256</ele><time>2008-09-20T10:54:29Z</time></trkpt>
<trkpt lat="46.05719922" lon="7.48927876"><ele>1883.359863</ele><time>2008-09-20T10:54:37Z</time></trkpt>
<trkpt lat="46.05699839" lon="7.48923476"><ele>1883.840576</ele><time>2008-09-20T10:54:43Z</time></trkpt>
<trkpt lat="46.05678247" lon="7.48917365"><ele>1884.321533</ele><time>2008-09-20T10:54:50Z</time></trkpt>
<trkpt lat="46.05655666" lon="7.48912596"><ele>1885.763428</ele><time>2008-09-20T10:54:58Z</time></trkpt>
<trkpt lat="46.05635148" lon="7.48892077"><ele>1886.724609</ele><time>2008-09-20T10:55:06Z</time></trkpt>
<trkpt lat="46.05622516" lon="7.48859430"><ele>1886.724609</ele><time>2008-09-20T10:55:14Z</time></trkpt>
<trkpt lat="46.05610304" lon="7.48848919"><ele>1891.050537</ele><time>2008-09-20T10:57:02Z</time></trkpt>
<trkpt lat="46.05600581" lon="7.48834644"><ele>1890.089355</ele><time>2008-09-20T10:57:09Z</time></trkpt>
<trkpt lat="46.05585091" lon="7.48818694"><ele>1889.608643</ele><time>2008-09-20T10:57:15Z</time></trkpt>
<trkpt lat="46.05575812" lon="7.48810002"><ele>1889.12793</ele><time>2008-09-20T10:57:20Z</time></trkpt>
<trkpt lat="46.05560591" lon="7.48793741"><ele>1888.166748</ele><time>2008-09-20T10:57:27Z</time></trkpt>
<trkpt lat="46.05540139" lon="7.48774420"><ele>1888.647461</ele><time>2008-09-20T10:57:35Z</time></trkpt>
<trkpt lat="46.05516644" lon="7.48758570"><ele>1888.647461</ele><time>2008-09-20T10:57:43Z</time></trkpt>
<trkpt lat="46.05492982" lon="7.48744941"><ele>1887.205322</ele><time>2008-09-20T10:57:51Z</time></trkpt>
<trkpt lat="46.05463997" lon="7.48733676"><ele>1887.205322</ele><time>2008-09-20T10:58:16Z</time></trkpt>
<trkpt lat="46.05459396" lon="7.48741983"><ele>1887.205322</ele><time>2008-09-20T10:58:42Z</time></trkpt>
<trkpt lat="46.05445943" lon="7.48764966"><ele>1887.205322</ele><time>2008-09-20T10:58:56Z</time></trkpt>
<trkpt lat="46.05438818" lon="7.48784739"><ele>1892.011963</ele><time>2008-09-20T10:59:07Z</time></trkpt>
<trkpt lat="46.05437502" lon="7.48787647"><ele>1892.492676</ele><time>2008-09-20T10:59:14Z</time></trkpt>
<trkpt lat="46.05436957" lon="7.48794554"><ele>1892.492676</ele><time>2008-09-20T10:59:41Z</time></trkpt>
<trkpt lat="46.05430964" lon="7.48830973"><ele>1892.492676</ele><time>2008-09-20T11:00:08Z</time></trkpt>
<trkpt lat="46.05423496" lon="7.48835826"><ele>1889.608643</ele><time>2008-09-20T11:00:18Z</time></trkpt>
<trkpt lat="46.05424544" lon="7.48834787"><ele>1886.244141</ele><time>2008-09-20T11:00:50Z</time></trkpt>
<trkpt lat="46.05424728" lon="7.48842088"><ele>1886.244141</ele><time>2008-09-20T11:01:24Z</time></trkpt>
<trkpt lat="46.05417646" lon="7.48846899"><ele>1882.398682</ele><time>2008-09-20T11:01:33Z</time></trkpt>
<trkpt lat="46.05416941" lon="7.48853277"><ele>1881.437256</ele><time>2008-09-20T11:01:40Z</time></trkpt>
<trkpt lat="46.05412558" lon="7.48855993"><ele>1881.437256</ele><time>2008-09-20T11:01:51Z</time></trkpt>
<trkpt lat="46.05410697" lon="7.48864744"><ele>1881.437256</ele><time>2008-09-20T11:02:00Z</time></trkpt>
<trkpt lat="46.05410756" lon="7.48865456"><ele>1881.437256</ele><time>2008-09-20T11:02:08Z</time></trkpt>
<trkpt lat="46.05403841" lon="7.48865993"><ele>1881.437256</ele><time>2008-09-20T11:02:24Z</time></trkpt>
<trkpt lat="46.05404310" lon="7.48868356"><ele>1881.437256</ele><time>2008-09-20T11:02:27Z</time></trkpt>
<trkpt lat="46.05415408" lon="7.48882941"><ele>1881.437256</ele><time>2008-09-20T11:02:37Z</time></trkpt>
<trkpt lat="46.05419029" lon="7.48903711"><ele>1881.437256</ele><time>2008-09-20T11:02:52Z</time></trkpt>
<trkpt lat="46.05404964" lon="7.48903401"><ele>1881.437256</ele><time>2008-09-20T11:03:05Z</time></trkpt>
<trkpt lat="46.05395551" lon="7.48901691"><ele>1881.437256</ele><time>2008-09-20T11:03:14Z</time></trkpt>
<trkpt lat="46.05396791" lon="7.48929217"><ele>1881.437256</ele><time>2008-09-20T11:03:31Z</time></trkpt>
<trkpt lat="46.05392517" lon="7.48939946"><ele>1881.437256</ele><time>2008-09-20T11:03:41Z</time></trkpt>
<trkpt lat="46.05376591" lon="7.48953408"><ele>1874.708252</ele><time>2008-09-20T11:04:12Z</time></trkpt>
<trkpt lat="46.05384478" lon="7.48973281"><ele>1867.498047</ele><time>2008-09-20T11:04:25Z</time></trkpt>
<trkpt lat="46.05393615" lon="7.48995963"><ele>1864.133545</ele><time>2008-09-20T11:04:40Z</time></trkpt>
<trkpt lat="46.05396263" lon="7.49008393"><ele>1864.133545</ele><time>2008-09-20T11:04:49Z</time></trkpt>
<trkpt lat="46.05398744" lon="7.49010690"><ele>1846.349365</ele><time>2008-09-20T11:05:43Z</time></trkpt>
<trkpt lat="46.05399298" lon="7.49009583"><ele>1845.387939</ele><time>2008-09-20T11:05:57Z</time></trkpt>
<trkpt lat="46.05399440" lon="7.49011855"><ele>1841.062012</ele><time>2008-09-20T11:06:18Z</time></trkpt>
<trkpt lat="46.05408291" lon="7.49020295"><ele>1840.10083</ele><time>2008-09-20T11:06:25Z</time></trkpt>
<trkpt lat="46.05401653" lon="7.49031116"><ele>1839.620117</ele><time>2008-09-20T11:06:29Z</time></trkpt>
<trkpt lat="46.05026881" lon="7.49036489"><ele>1832.890625</ele><time>2008-09-20T11:07:51Z</time></trkpt>
<trkpt lat="46.04967998" lon="7.48987136"><ele>1832.890625</ele><time>2008-09-20T11:07:57Z</time></trkpt>
<trkpt lat="46.04842605" lon="7.48885489"><ele>1832.890625</ele><time>2008-09-20T11:08:11Z</time></trkpt>
<trkpt lat="46.04823930" lon="7.48871986"><ele>1832.890625</ele><time>2008-09-20T11:08:13Z</time></trkpt>
<trkpt lat="46.04804199" lon="7.48877459"><ele>1832.890625</ele><time>2008-09-20T11:08:19Z</time></trkpt>
<trkpt lat="46.04801190" lon="7.48899763"><ele>1822.797119</ele><time>2008-09-20T11:08:28Z</time></trkpt>
<trkpt lat="46.04787167" lon="7.48908229"><ele>1820.874512</ele><time>2008-09-20T11:08:34Z</time></trkpt>
<trkpt lat="46.04773899" lon="7.48910140"><ele>1819.432373</ele><time>2008-09-20T11:08:39Z</time></trkpt>
<trkpt lat="46.04752969" lon="7.48898204"><ele>1816.067627</ele><time>2008-09-20T11:08:50Z</time></trkpt>
<trkpt lat="46.04737546" lon="7.48887216"><ele>1816.067627</ele><time>2008-09-20T11:08:55Z</time></trkpt>
<trkpt lat="46.04709894" lon="7.48874467"><ele>1814.625732</ele><time>2008-09-20T11:09:04Z</time></trkpt>
<trkpt lat="46.04678747" lon="7.48865599"><ele>1814.625732</ele><time>2008-09-20T11:09:13Z</time></trkpt>
<trkpt lat="46.04650609" lon="7.48851593"><ele>1814.625732</ele><time>2008-09-20T11:09:22Z</time></trkpt>
<trkpt lat="46.04601986" lon="7.48848424"><ele>1814.625732</ele><time>2008-09-20T11:09:38Z</time></trkpt>
<trkpt lat="46.04574158" lon="7.48863847"><ele>1814.14502</ele><time>2008-09-20T11:09:49Z</time></trkpt>
<trkpt lat="46.04549515" lon="7.48887987"><ele>1823.277832</ele><time>2008-09-20T11:10:12Z</time></trkpt>
<trkpt lat="46.04496860" lon="7.48918992"><ele>1826.642334</ele><time>2008-09-20T11:11:17Z</time></trkpt>
<trkpt lat="46.04473508" lon="7.48914189"><ele>1825.680908</ele><time>2008-09-20T11:11:28Z</time></trkpt>
<trkpt lat="46.04458907" lon="7.48912521"><ele>1825.680908</ele><time>2008-09-20T11:11:36Z</time></trkpt>
<trkpt lat="46.04444314" lon="7.48933341"><ele>1824.719727</ele><time>2008-09-20T11:11:45Z</time></trkpt>
<trkpt lat="46.04436032" lon="7.48953114"><ele>1824.719727</ele><time>2008-09-20T11:11:52Z</time></trkpt>
<trkpt lat="46.04406377" lon="7.48974958"><ele>1823.758301</ele><time>2008-09-20T11:12:04Z</time></trkpt>
<trkpt lat="46.04369245" lon="7.49000874"><ele>1824.719727</ele><time>2008-09-20T11:12:18Z</time></trkpt>
<trkpt lat="46.04348970" lon="7.49013456"><ele>1826.642334</ele><time>2008-09-20T11:12:27Z</time></trkpt>
<trkpt lat="46.04335114" lon="7.49031125"><ele>1825.680908</ele><time>2008-09-20T11:12:35Z</time></trkpt>
<trkpt lat="46.04332214" lon="7.49032809"><ele>1826.642334</ele><time>2008-09-20T11:12:36Z</time></trkpt>
<trkpt lat="46.04309424" lon="7.49037981"><ele>1825.680908</ele><time>2008-09-20T11:12:44Z</time></trkpt>
<trkpt lat="46.04302752" lon="7.49043329"><ele>1824.719727</ele><time>2008-09-20T11:12:47Z</time></trkpt>
<trkpt lat="46.04282191" lon="7.49036875"><ele>1825.680908</ele><time>2008-09-20T11:12:57Z</time></trkpt>
<trkpt lat="46.04257565" lon="7.49023614"><ele>1829.04541</ele><time>2008-09-20T11:13:07Z</time></trkpt>
<trkpt lat="46.04247834" lon="7.49019038"><ele>1829.526123</ele><time>2008-09-20T11:13:11Z</time></trkpt>
<trkpt lat="46.04227197" lon="7.49003934"><ele>1831.44873</ele><time>2008-09-20T11:13:22Z</time></trkpt>
<trkpt lat="46.04201406" lon="7.48992769"><ele>1831.929443</ele><time>2008-09-20T11:13:32Z</time></trkpt>
<trkpt lat="46.04170234" lon="7.48974396"><ele>1833.852051</ele><time>2008-09-20T11:13:44Z</time></trkpt>
<trkpt lat="46.04154107" lon="7.48955746"><ele>1835.774658</ele><time>2008-09-20T11:13:52Z</time></trkpt>
<trkpt lat="46.04144937" lon="7.48947926"><ele>1834.813477</ele><time>2008-09-20T11:13:56Z</time></trkpt>
<trkpt lat="46.04121795" lon="7.48947456"><ele>1835.774658</ele><time>2008-09-20T11:14:05Z</time></trkpt>
<trkpt lat="46.04093154" lon="7.48932444"><ele>1838.178223</ele><time>2008-09-20T11:14:57Z</time></trkpt>
<trkpt lat="46.04086591" lon="7.48914977"><ele>1839.620117</ele><time>2008-09-20T11:15:03Z</time></trkpt>
<trkpt lat="46.04067321" lon="7.48905572"><ele>1838.178223</ele><time>2008-09-20T11:15:11Z</time></trkpt>
<trkpt lat="46.04039912" lon="7.48898171"><ele>1837.69751</ele><time>2008-09-20T11:15:22Z</time></trkpt>
<trkpt lat="46.04022495" lon="7.48877610"><ele>1838.658936</ele><time>2008-09-20T11:15:31Z</time></trkpt>
<trkpt lat="46.03999738" lon="7.48853747"><ele>1840.10083</ele><time>2008-09-20T11:15:41Z</time></trkpt>
<trkpt lat="46.03979805" lon="7.48842171"><ele>1841.062012</ele><time>2008-09-20T11:15:49Z</time></trkpt>
<trkpt lat="46.03960603" lon="7.48840277"><ele>1839.620117</ele><time>2008-09-20T11:15:57Z</time></trkpt>
<trkpt lat="46.03926983" lon="7.48835055"><ele>1840.10083</ele><time>2008-09-20T11:16:09Z</time></trkpt>
<trkpt lat="46.03903673" lon="7.48825148"><ele>1842.50415</ele><time>2008-09-20T11:16:18Z</time></trkpt>
<trkpt lat="46.03877110" lon="7.48813028"><ele>1844.426514</ele><time>2008-09-20T11:16:28Z</time></trkpt>
<trkpt lat="46.03851085" lon="7.48794621"><ele>1845.387939</ele><time>2008-09-20T11:16:36Z</time></trkpt>
<trkpt lat="46.03813182" lon="7.48772979"><ele>1848.752441</ele><time>2008-09-20T11:16:47Z</time></trkpt>
<trkpt lat="46.03786410" lon="7.48773172"><ele>1847.310547</ele><time>2008-09-20T11:16:55Z</time></trkpt>
<trkpt lat="46.03734082" lon="7.48784990"><ele>1846.829834</ele><time>2008-09-20T11:17:16Z</time></trkpt>
<trkpt lat="46.03718215" lon="7.48774781"><ele>1849.233154</ele><time>2008-09-20T11:17:25Z</time></trkpt>
<trkpt lat="46.03704141" lon="7.48770691"><ele>1849.713867</ele><time>2008-09-20T11:17:31Z</time></trkpt>
<trkpt lat="46.03681494" lon="7.48768226"><ele>1851.636475</ele><time>2008-09-20T11:17:41Z</time></trkpt>
<trkpt lat="46.03664772" lon="7.48765502"><ele>1852.117188</ele><time>2008-09-20T11:17:47Z</time></trkpt>
<trkpt lat="46.03640162" lon="7.48751270"><ele>1853.559326</ele><time>2008-09-20T11:17:54Z</time></trkpt>
<trkpt lat="46.03632577" lon="7.48749585"><ele>1854.040039</ele><time>2008-09-20T11:18:00Z</time></trkpt>
<trkpt lat="46.03628101" lon="7.48751437"><ele>1852.5979</ele><time>2008-09-20T11:18:08Z</time></trkpt>
<trkpt lat="46.03623876" lon="7.48749937"><ele>1852.117188</ele><time>2008-09-20T11:18:15Z</time></trkpt>
<trkpt lat="46.03620742" lon="7.48748445"><ele>1851.636475</ele><time>2008-09-20T11:18:20Z</time></trkpt>
<trkpt lat="46.03618965" lon="7.48746450"><ele>1849.233154</ele><time>2008-09-20T11:18:26Z</time></trkpt>
<trkpt lat="46.03617867" lon="7.48745813"><ele>1850.19458</ele><time>2008-09-20T11:18:27Z</time></trkpt>
<trkpt lat="46.03603844" lon="7.48729292"><ele>1852.5979</ele><time>2008-09-20T11:18:37Z</time></trkpt>
<trkpt lat="46.03581388" lon="7.48729150"><ele>1852.5979</ele><time>2008-09-20T11:18:48Z</time></trkpt>
<trkpt lat="46.03565957" lon="7.48741069"><ele>1852.5979</ele><time>2008-09-20T11:18:57Z</time></trkpt>
<trkpt lat="46.03550417" lon="7.48745629"><ele>1856.443115</ele><time>2008-09-20T11:19:17Z</time></trkpt>
<trkpt lat="46.03479205" lon="7.48760230"><ele>1857.404541</ele><time>2008-09-20T11:20:29Z</time></trkpt>
<trkpt lat="46.03459088" lon="7.48751337"><ele>1858.846436</ele><time>2008-09-20T11:20:38Z</time></trkpt>
<trkpt lat="46.03438326" lon="7.48747079"><ele>1859.327148</ele><time>2008-09-20T11:20:50Z</time></trkpt>
<trkpt lat="46.03423306" lon="7.48739862"><ele>1860.769043</ele><time>2008-09-20T11:21:02Z</time></trkpt>
<trkpt lat="46.03413658" lon="7.48716451"><ele>1863.652832</ele><time>2008-09-20T11:26:37Z</time></trkpt>
<trkpt lat="46.03413935" lon="7.48702898"><ele>1861.249756</ele><time>2008-09-20T11:26:43Z</time></trkpt>
<trkpt lat="46.03411026" lon="7.48690308"><ele>1860.28833</ele><time>2008-09-20T11:26:48Z</time></trkpt>
<trkpt lat="46.03404061" lon="7.48674558"><ele>1861.730469</ele><time>2008-09-20T11:26:57Z</time></trkpt>
<trkpt lat="46.03396308" lon="7.48655842"><ele>1865.094971</ele><time>2008-09-20T11:27:06Z</time></trkpt>
<trkpt lat="46.03395369" lon="7.48655205"><ele>1865.094971</ele><time>2008-09-20T11:27:12Z</time></trkpt>
<trkpt lat="46.03390474" lon="7.48654366"><ele>1862.210938</ele><time>2008-09-20T11:28:02Z</time></trkpt>
<trkpt lat="46.03377063" lon="7.48650008"><ele>1864.614258</ele><time>2008-09-20T11:28:13Z</time></trkpt>
<trkpt lat="46.03360618" lon="7.48645130"><ele>1870.382324</ele><time>2008-09-20T11:28:24Z</time></trkpt>
<trkpt lat="46.03348430" lon="7.48644652"><ele>1871.824219</ele><time>2008-09-20T11:28:34Z</time></trkpt>
<trkpt lat="46.03338221" lon="7.48643328"><ele>1873.746826</ele><time>2008-09-20T11:28:43Z</time></trkpt>
<trkpt lat="46.03324424" lon="7.48636899"><ele>1878.553467</ele><time>2008-09-20T11:28:54Z</time></trkpt>
<trkpt lat="46.03311106" lon="7.48635407"><ele>1881.437256</ele><time>2008-09-20T11:29:04Z</time></trkpt>
<trkpt lat="46.03301039" lon="7.48630822"><ele>1884.321533</ele><time>2008-09-20T11:29:13Z</time></trkpt>
<trkpt lat="46.03290872" lon="7.48629724"><ele>1883.359863</ele><time>2008-09-20T11:29:22Z</time></trkpt>
<trkpt lat="46.03275131" lon="7.48633236"><ele>1882.87915</ele><time>2008-09-20T11:29:34Z</time></trkpt>
<trkpt lat="46.03258216" lon="7.48628014"><ele>1885.763428</ele><time>2008-09-20T11:29:44Z</time></trkpt>
<trkpt lat="46.03239591" lon="7.48620302"><ele>1886.244141</ele><time>2008-09-20T11:29:55Z</time></trkpt>
<trkpt lat="46.03230732" lon="7.48618064"><ele>1885.763428</ele><time>2008-09-20T11:30:01Z</time></trkpt>
<trkpt lat="46.03216315" lon="7.48613069"><ele>1883.840576</ele><time>2008-09-20T11:30:09Z</time></trkpt>
<trkpt lat="46.03199467" lon="7.48593162"><ele>1883.840576</ele><time>2008-09-20T11:32:07Z</time></trkpt>
<trkpt lat="46.03198168" lon="7.48591905"><ele>1884.802246</ele><time>2008-09-20T11:32:08Z</time></trkpt>
<trkpt lat="46.03186592" lon="7.48592583"><ele>1887.205322</ele><time>2008-09-20T11:32:16Z</time></trkpt>
<trkpt lat="46.03178194" lon="7.48594319"><ele>1887.205322</ele><time>2008-09-20T11:32:22Z</time></trkpt>
<trkpt lat="46.03167188" lon="7.48590496"><ele>1886.244141</ele><time>2008-09-20T11:32:30Z</time></trkpt>
<trkpt lat="46.03151229" lon="7.48585685"><ele>1892.011963</ele><time>2008-09-20T11:32:44Z</time></trkpt>
<trkpt lat="46.03149670" lon="7.48585199"><ele>1892.011963</ele><time>2008-09-20T11:32:52Z</time></trkpt>
<trkpt lat="46.03144172" lon="7.48584143"><ele>1892.973145</ele><time>2008-09-20T11:33:05Z</time></trkpt>
<trkpt lat="46.03140852" lon="7.48582374"><ele>1894.895752</ele><time>2008-09-20T11:33:15Z</time></trkpt>
<trkpt lat="46.03128548" lon="7.48577530"><ele>1896.337891</ele><time>2008-09-20T11:33:23Z</time></trkpt>
<trkpt lat="46.03116402" lon="7.48568159"><ele>1896.337891</ele><time>2008-09-20T11:33:31Z</time></trkpt>
<trkpt lat="46.03097719" lon="7.48560037"><ele>1898.260254</ele><time>2008-09-20T11:33:42Z</time></trkpt>
<trkpt lat="46.03086328" lon="7.48553021"><ele>1897.299072</ele><time>2008-09-20T11:33:48Z</time></trkpt>
<trkpt lat="46.03073755" lon="7.48542870"><ele>1897.779785</ele><time>2008-09-20T11:33:56Z</time></trkpt>
<trkpt lat="46.03057469" lon="7.48533675"><ele>1899.702393</ele><time>2008-09-20T11:34:05Z</time></trkpt>
<trkpt lat="46.03043631" lon="7.48529560"><ele>1898.260254</ele><time>2008-09-20T11:34:15Z</time></trkpt>
<trkpt lat="46.03036188" lon="7.48525553"><ele>1898.260254</ele><time>2008-09-20T11:34:20Z</time></trkpt>
<trkpt lat="46.03030060" lon="7.48525067"><ele>1897.299072</ele><time>2008-09-20T11:35:34Z</time></trkpt>
<trkpt lat="46.03012970" lon="7.48523835"><ele>1898.740967</ele><time>2008-09-20T11:35:43Z</time></trkpt>
<trkpt lat="46.02993373" lon="7.48530096"><ele>1895.857178</ele><time>2008-09-20T11:35:55Z</time></trkpt>
<trkpt lat="46.02974094" lon="7.48533323"><ele>1900.18335</ele><time>2008-09-20T11:36:06Z</time></trkpt>
<trkpt lat="46.02955051" lon="7.48537313"><ele>1904.509033</ele><time>2008-09-20T11:36:18Z</time></trkpt>
<trkpt lat="46.02933744" lon="7.48541638"><ele>1911.718994</ele><time>2008-09-20T11:36:31Z</time></trkpt>
<trkpt lat="46.02924557" lon="7.48532267"><ele>1912.680176</ele><time>2008-09-20T11:36:39Z</time></trkpt>
<trkpt lat="46.02914524" lon="7.48535813"><ele>1912.680176</ele><time>2008-09-20T11:36:44Z</time></trkpt>
<trkpt lat="46.02885129" lon="7.48537246"><ele>1915.083496</ele><time>2008-09-20T11:36:57Z</time></trkpt>
<trkpt lat="46.02869128" lon="7.48524212"><ele>1918.928955</ele><time>2008-09-20T11:37:05Z</time></trkpt>
<trkpt lat="46.02864493" lon="7.48517624"><ele>1919.409668</ele><time>2008-09-20T11:37:08Z</time></trkpt>
<trkpt lat="46.02859749" lon="7.48483216"><ele>1924.696777</ele><time>2008-09-20T11:37:19Z</time></trkpt>
<trkpt lat="46.02854929" lon="7.48437518"><ele>1941.519775</ele><time>2008-09-20T11:37:32Z</time></trkpt>
<trkpt lat="46.02812265" lon="7.48371611"><ele>1942.481201</ele><time>2008-09-20T11:38:03Z</time></trkpt>
<trkpt lat="46.02787203" lon="7.48361737"><ele>1942.481201</ele><time>2008-09-20T11:38:14Z</time></trkpt>
<trkpt lat="46.02767682" lon="7.48368795"><ele>1942.481201</ele><time>2008-09-20T11:38:23Z</time></trkpt>
<trkpt lat="46.02751194" lon="7.48374654"><ele>1942.481201</ele><time>2008-09-20T11:38:31Z</time></trkpt>
<trkpt lat="46.02743894" lon="7.48375098"><ele>1942.96167</ele><time>2008-09-20T11:38:35Z</time></trkpt>
<trkpt lat="46.02738949" lon="7.48382173"><ele>1943.923096</ele><time>2008-09-20T11:39:21Z</time></trkpt>
<trkpt lat="46.02721187" lon="7.48370916"><ele>1945.36499</ele><time>2008-09-20T11:39:30Z</time></trkpt>
<trkpt lat="46.02695740" lon="7.48362676"><ele>1944.884277</ele><time>2008-09-20T11:39:41Z</time></trkpt>
<trkpt lat="46.02670720" lon="7.48358695"><ele>1947.287598</ele><time>2008-09-20T11:39:51Z</time></trkpt>
<trkpt lat="46.02642816" lon="7.48361260"><ele>1949.210449</ele><time>2008-09-20T11:40:02Z</time></trkpt>
<trkpt lat="46.02610881" lon="7.48364654"><ele>1950.652344</ele><time>2008-09-20T11:40:14Z</time></trkpt>
<trkpt lat="46.02581243" lon="7.48366130"><ele>1951.61377</ele><time>2008-09-20T11:40:25Z</time></trkpt>
<trkpt lat="46.02559048" lon="7.48353112"><ele>1951.61377</ele><time>2008-09-20T11:40:34Z</time></trkpt>
<trkpt lat="46.02533726" lon="7.48333138"><ele>1957.381592</ele><time>2008-09-20T11:40:44Z</time></trkpt>
<trkpt lat="46.02499201" lon="7.48306626"><ele>1964.11084</ele><time>2008-09-20T11:40:54Z</time></trkpt>
<trkpt lat="46.02462010" lon="7.48284398"><ele>1964.11084</ele><time>2008-09-20T11:41:05Z</time></trkpt>
<trkpt lat="46.02426245" lon="7.48269386"><ele>1966.033447</ele><time>2008-09-20T11:41:15Z</time></trkpt>
<trkpt lat="46.02394352" lon="7.48251616"><ele>1966.033447</ele><time>2008-09-20T11:41:24Z</time></trkpt>
<trkpt lat="46.02370832" lon="7.48221567"><ele>1966.994873</ele><time>2008-09-20T11:41:32Z</time></trkpt>
<trkpt lat="46.02331177" lon="7.48168820"><ele>1967.956055</ele><time>2008-09-20T11:41:46Z</time></trkpt>
<trkpt lat="46.02284482" lon="7.48137496"><ele>1967.475342</ele><time>2008-09-20T11:42:00Z</time></trkpt>
<trkpt lat="46.02268682" lon="7.48132677"><ele>1967.475342</ele><time>2008-09-20T11:42:04Z</time></trkpt>
<trkpt lat="46.02218466" lon="7.48151561"><ele>1966.033447</ele><time>2008-09-20T11:42:15Z</time></trkpt>
<trkpt lat="46.02171091" lon="7.48163262"><ele>1969.878662</ele><time>2008-09-20T11:42:26Z</time></trkpt>
<trkpt lat="46.02164612" lon="7.48163799"><ele>1970.359375</ele><time>2008-09-20T11:42:28Z</time></trkpt>
<trkpt lat="46.02159549" lon="7.48165576"><ele>1985.259766</ele><time>2008-09-20T11:43:02Z</time></trkpt>
<trkpt lat="46.02155744" lon="7.48153581"><ele>1987.182373</ele><time>2008-09-20T11:43:06Z</time></trkpt>
<trkpt lat="46.02162802" lon="7.48141017"><ele>1987.182373</ele><time>2008-09-20T11:43:10Z</time></trkpt>
<trkpt lat="46.02185701" lon="7.48120649"><ele>1987.663086</ele><time>2008-09-20T11:43:19Z</time></trkpt>
<trkpt lat="46.02219212" lon="7.48096987"><ele>1990.546875</ele><time>2008-09-20T11:43:30Z</time></trkpt>
<trkpt lat="46.02247115" lon="7.48096601"><ele>1991.989014</ele><time>2008-09-20T11:43:39Z</time></trkpt>
<trkpt lat="46.02349911" lon="7.48120003"><ele>1996.795654</ele><time>2008-09-20T11:44:19Z</time></trkpt>
<trkpt lat="46.02395592" lon="7.48129894"><ele>1997.276367</ele><time>2008-09-20T11:44:37Z</time></trkpt>
<trkpt lat="46.02449597" lon="7.48158208"><ele>1997.276367</ele><time>2008-09-20T11:44:58Z</time></trkpt>
<trkpt lat="46.02483183" lon="7.48155409"><ele>1996.795654</ele><time>2008-09-20T11:45:11Z</time></trkpt>
<trkpt lat="46.02506401" lon="7.48137228"><ele>1999.679688</ele><time>2008-09-20T11:45:21Z</time></trkpt>
<trkpt lat="46.02530491" lon="7.48117631"><ele>2006.889404</ele><time>2008-09-20T11:45:32Z</time></trkpt>
<trkpt lat="46.02554647" lon="7.48117103"><ele>2012.176758</ele><time>2008-09-20T11:45:42Z</time></trkpt>
<trkpt lat="46.02573339" lon="7.48122677"><ele>2016.502686</ele><time>2008-09-20T11:45:50Z</time></trkpt>
<trkpt lat="46.02577605" lon="7.48109627"><ele>2017.94458</ele><time>2008-09-20T11:45:55Z</time></trkpt>
<trkpt lat="46.02577857" lon="7.48094757"><ele>2018.906006</ele><time>2008-09-20T11:46:02Z</time></trkpt>
<trkpt lat="46.02575745" lon="7.48089870"><ele>2021.789795</ele><time>2008-09-20T11:46:08Z</time></trkpt>
<trkpt lat="46.02576206" lon="7.48091304"><ele>2018.906006</ele><time>2008-09-20T11:46:37Z</time></trkpt>
<trkpt lat="46.02576256" lon="7.48091371"><ele>2018.906006</ele><time>2008-09-20T11:46:38Z</time></trkpt>
<trkpt lat="46.02576273" lon="7.48091865"><ele>2019.867188</ele><time>2008-09-20T11:46:46Z</time></trkpt>
<trkpt lat="46.02550775" lon="7.48089510"><ele>2016.502686</ele><time>2008-09-20T11:46:58Z</time></trkpt>
<trkpt lat="46.02524204" lon="7.48083198"><ele>2018.425293</ele><time>2008-09-20T11:47:11Z</time></trkpt>
<trkpt lat="46.02505957" lon="7.48088923"><ele>2021.309082</ele><time>2008-09-20T11:47:18Z</time></trkpt>
<trkpt lat="46.02496334" lon="7.48095101"><ele>2019.867188</ele><time>2008-09-20T11:47:56Z</time></trkpt>
<trkpt lat="46.02513107" lon="7.48074775"><ele>2023.231934</ele><time>2008-09-20T11:48:07Z</time></trkpt>
<trkpt lat="46.02515629" lon="7.48073601"><ele>2023.712402</ele><time>2008-09-20T11:48:08Z</time></trkpt>
<trkpt lat="46.02540825" lon="7.48054063"><ele>2028.999756</ele><time>2008-09-20T11:48:19Z</time></trkpt>
<trkpt lat="46.02567128" lon="7.48027995"><ele>2033.325684</ele><time>2008-09-20T11:48:31Z</time></trkpt>
<trkpt lat="46.02581075" lon="7.48026713"><ele>2034.287109</ele><time>2008-09-20T11:48:36Z</time></trkpt>
<trkpt lat="46.02600630" lon="7.48045958"><ele>2038.613037</ele><time>2008-09-20T11:48:45Z</time></trkpt>
<trkpt lat="46.02612583" lon="7.48062478"><ele>2043.900146</ele><time>2008-09-20T11:48:53Z</time></trkpt>
<trkpt lat="46.02632373" lon="7.48075236"><ele>2047.745605</ele><time>2008-09-20T11:49:03Z</time></trkpt>
<trkpt lat="46.02658901" lon="7.48085101"><ele>2047.745605</ele><time>2008-09-20T11:49:15Z</time></trkpt>
<trkpt lat="46.02677903" lon="7.48089259"><ele>2049.668213</ele><time>2008-09-20T11:49:24Z</time></trkpt>
<trkpt lat="46.02699922" lon="7.48091924"><ele>2051.59082</ele><time>2008-09-20T11:49:34Z</time></trkpt>
<trkpt lat="46.02724557" lon="7.48084816"><ele>2054.474609</ele><time>2008-09-20T11:49:45Z</time></trkpt>
<trkpt lat="46.02754472" lon="7.48079033"><ele>2057.839355</ele><time>2008-09-20T11:49:58Z</time></trkpt>
<trkpt lat="46.02762988" lon="7.48075822"><ele>2059.28125</ele><time>2008-09-20T11:50:02Z</time></trkpt>
<trkpt lat="46.02725454" lon="7.48057659"><ele>2060.723389</ele><time>2008-09-20T11:50:24Z</time></trkpt>
<trkpt lat="46.02703091" lon="7.48040543"><ele>2065.049316</ele><time>2008-09-20T11:50:34Z</time></trkpt>
<trkpt lat="46.02680124" lon="7.48011927"><ele>2069.375244</ele><time>2008-09-20T11:50:46Z</time></trkpt>
<trkpt lat="46.02658189" lon="7.47987536"><ele>2075.142822</ele><time>2008-09-20T11:50:57Z</time></trkpt>
<trkpt lat="46.02633881" lon="7.47965089"><ele>2078.0271</ele><time>2008-09-20T11:51:08Z</time></trkpt>
<trkpt lat="46.02610320" lon="7.47940706"><ele>2080.911133</ele><time>2008-09-20T11:51:19Z</time></trkpt>
<trkpt lat="46.02576013" lon="7.47923926"><ele>2080.911133</ele><time>2008-09-20T11:51:33Z</time></trkpt>
<trkpt lat="46.02539543" lon="7.47926214"><ele>2078.507813</ele><time>2008-09-20T11:51:47Z</time></trkpt>
<trkpt lat="46.02561914" lon="7.47903700"><ele>2075.623535</ele><time>2008-09-20T11:52:02Z</time></trkpt>
<trkpt lat="46.02573666" lon="7.47889224"><ele>2082.833496</ele><time>2008-09-20T11:52:10Z</time></trkpt>
<trkpt lat="46.02598778" lon="7.47889644"><ele>2096.772705</ele><time>2008-09-20T11:52:24Z</time></trkpt>
<trkpt lat="46.02622842" lon="7.47884933"><ele>2097.734131</ele><time>2008-09-20T11:52:36Z</time></trkpt>
<trkpt lat="46.02639631" lon="7.47872377"><ele>2097.734131</ele><time>2008-09-20T11:52:46Z</time></trkpt>
<trkpt lat="46.02657468" lon="7.47871924"><ele>2099.176025</ele><time>2008-09-20T11:52:55Z</time></trkpt>
<trkpt lat="46.02676554" lon="7.47871061"><ele>2101.579346</ele><time>2008-09-20T11:53:05Z</time></trkpt>
<trkpt lat="46.02693485" lon="7.47869527"><ele>2103.501953</ele><time>2008-09-20T11:53:14Z</time></trkpt>
<trkpt lat="46.02700786" lon="7.47865420"><ele>2104.943848</ele><time>2008-09-20T11:53:21Z</time></trkpt>
<trkpt lat="46.02700786" lon="7.47865420"><ele>2105.424561</ele><time>2008-09-20T11:53:22Z</time></trkpt>
<trkpt lat="46.02703711" lon="7.47869116"><ele>2097.734131</ele><time>2008-09-20T12:02:09Z</time></trkpt>
</trkseg></trk></gpx>